sensor_id;sensor_type;location;lat;lon;timestamp;temperature;humidity
31675;DHT22;18276;45.520;11.018;2022-08-11T00:01:27;26.90;45.60
31675;DHT22;18276;45.520;11.018;2022-08-11T00:03:57;26.90;45.70
31675;DHT22;18276;45.520;11.018;2022-08-11T00:06:38;26.90;45.70
31675;DHT22;18276;45.520;11.018;2022-08-11T00:09:15;26.90;45.80
31675;DHT22;18276;45.520;11.018;2022-08-11T00:11:52;26.80;45.70
31675;DHT22;18276;45.520;11.018;2022-08-11T00:14:30;26.80;45.80
31675;DHT22;18276;45.520;11.018;2022-08-11T00:17:06;26.80;45.80
31675;DHT22;18276;45.520;11.018;2022-08-11T00:19:37;26.80;45.90
31675;DHT22;18276;45.520;11.018;2022-08-11T00:22:26;26.80;45.90
31675;DHT22;18276;45.520;11.018;2022-08-11T00:24:56;26.80;46.00
31675;DHT22;18276;45.520;11.018;2022-08-11T00:27:36;26.80;46.00
31675;DHT22;18276;45.520;11.018;2022-08-11T00:30:07;26.80;46.10
31675;DHT22;18276;45.520;11.018;2022-08-11T00:32:37;26.80;46.10
31675;DHT22;18276;45.520;11.018;2022-08-11T00:35:09;26.80;45.90
31675;DHT22;18276;45.520;11.018;2022-08-11T00:37:58;26.80;46.00
31675;DHT22;18276;45.520;11.018;2022-08-11T00:40:54;26.80;46.00
31675;DHT22;18276;45.520;11.018;2022-08-11T00:43:50;26.80;45.90
31675;DHT22;18276;45.520;11.018;2022-08-11T01:06:46;26.80;46.20
31675;DHT22;18276;45.520;11.018;2022-08-11T01:09:30;26.70;46.10
31675;DHT22;18276;45.520;11.018;2022-08-11T01:12:28;26.70;46.10
31675;DHT22;18276;45.520;11.018;2022-08-11T01:15:17;26.70;46.00
31675;DHT22;18276;45.520;11.018;2022-08-11T01:35:25;26.70;46.60
31675;DHT22;18276;45.520;11.018;2022-08-11T01:41:21;26.50;48.80
31675;DHT22;18276;45.520;11.018;2022-08-11T01:49:38;26.10;50.50
31675;DHT22;18276;45.520;11.018;2022-08-11T01:52:53;26.00;51.20
31675;DHT22;18276;45.520;11.018;2022-08-11T01:55:41;25.90;51.80
31675;DHT22;18276;45.520;11.018;2022-08-11T02:07:20;25.50;53.90
31675;DHT22;18276;45.520;11.018;2022-08-11T02:13:35;25.30;54.70
31675;DHT22;18276;45.520;11.018;2022-08-11T02:16:20;25.20;55.00
31675;DHT22;18276;45.520;11.018;2022-08-11T02:25:58;25.10;53.30
31675;DHT22;18276;45.520;11.018;2022-08-11T02:28:20;25.10;52.70
31675;DHT22;18276;45.520;11.018;2022-08-11T02:31:10;25.20;52.20
31675;DHT22;18276;45.520;11.018;2022-08-11T02:37:02;25.10;53.40
31675;DHT22;18276;45.520;11.018;2022-08-11T02:39:47;25.10;53.80
31675;DHT22;18276;45.520;11.018;2022-08-11T02:51:26;25.00;53.30
31675;DHT22;18276;45.520;11.018;2022-08-11T02:59:15;24.80;53.40
31675;DHT22;18276;45.520;11.018;2022-08-11T03:05:11;24.80;53.70
31675;DHT22;18276;45.520;11.018;2022-08-11T03:08:46;24.80;54.10
31675;DHT22;18276;45.520;11.018;2022-08-11T03:11:29;24.70;54.30
31675;DHT22;18276;45.520;11.018;2022-08-11T03:14:54;24.60;53.90
31675;DHT22;18276;45.520;11.018;2022-08-11T03:17:52;24.60;54.30
31675;DHT22;18276;45.520;11.018;2022-08-11T03:31:49;24.30;54.30
31675;DHT22;18276;45.520;11.018;2022-08-11T03:34:21;24.30;54.20
31675;DHT22;18276;45.520;11.018;2022-08-11T03:39:55;24.20;54.00
31675;DHT22;18276;45.520;11.018;2022-08-11T03:42:42;24.10;53.90
31675;DHT22;18276;45.520;11.018;2022-08-11T03:48:06;24.00;54.20
31675;DHT22;18276;45.520;11.018;2022-08-11T03:56:21;23.90;54.00
31675;DHT22;18276;45.520;11.018;2022-08-11T04:48:19;23.40;53.70
31675;DHT22;18276;45.520;11.018;2022-08-11T04:54:03;23.30;53.30
31675;DHT22;18276;45.520;11.018;2022-08-11T04:57:01;23.40;53.30
31675;DHT22;18276;45.520;11.018;2022-08-11T05:06:13;23.60;52.60
31675;DHT22;18276;45.520;11.018;2022-08-11T05:09:02;23.90;51.90
31675;DHT22;18276;45.520;11.018;2022-08-11T05:14:54;24.30;50.90
31675;DHT22;18276;45.520;11.018;2022-08-11T05:17:52;24.80;50.00
31675;DHT22;18276;45.520;11.018;2022-08-11T05:20:51;25.50;48.80
31675;DHT22;18276;45.520;11.018;2022-08-11T05:23:46;26.00;47.30
31675;DHT22;18276;45.520;11.018;2022-08-11T05:26:52;25.90;46.90
31675;DHT22;18276;45.520;11.018;2022-08-11T05:30:01;25.70;46.60
31675;DHT22;18276;45.520;11.018;2022-08-11T05:35:49;26.80;45.00
31675;DHT22;18276;45.520;11.018;2022-08-11T05:38:32;27.00;44.20
31675;DHT22;18276;45.520;11.018;2022-08-11T05:41:22;26.70;44.00
31675;DHT22;18276;45.520;11.018;2022-08-11T05:44:09;26.60;44.30
31675;DHT22;18276;45.520;11.018;2022-08-11T05:47:01;26.40;44.50
31675;DHT22;18276;45.520;11.018;2022-08-11T05:49:49;26.20;44.90
31675;DHT22;18276;45.520;11.018;2022-08-11T05:52:44;26.10;45.00
31675;DHT22;18276;45.520;11.018;2022-08-11T05:55:42;25.90;45.60
31675;DHT22;18276;45.520;11.018;2022-08-11T05:58:43;25.90;45.90
31675;DHT22;18276;45.520;11.018;2022-08-11T06:01:13;26.20;45.70
31675;DHT22;18276;45.520;11.018;2022-08-11T06:03:43;26.20;45.30
31675;DHT22;18276;45.520;11.018;2022-08-11T06:06:29;26.30;44.80
31675;DHT22;18276;45.520;11.018;2022-08-11T06:08:58;26.60;44.10
31675;DHT22;18276;45.520;11.018;2022-08-11T06:11:27;26.80;43.40
31675;DHT22;18276;45.520;11.018;2022-08-11T06:14:10;27.20;43.20
31675;DHT22;18276;45.520;11.018;2022-08-11T06:16:40;28.00;42.90
31675;DHT22;18276;45.520;11.018;2022-08-11T06:19:08;29.10;41.80
31675;DHT22;18276;45.520;11.018;2022-08-11T06:21:36;29.90;40.40
31675;DHT22;18276;45.520;11.018;2022-08-11T06:24:10;30.80;38.80
31675;DHT22;18276;45.520;11.018;2022-08-11T06:26:40;31.60;37.00
31675;DHT22;18276;45.520;11.018;2022-08-11T06:29:35;32.20;36.20
31675;DHT22;18276;45.520;11.018;2022-08-11T06:32:30;32.90;35.40
31675;DHT22;18276;45.520;11.018;2022-08-11T06:38:09;33.70;32.90
31675;DHT22;18276;45.520;11.018;2022-08-11T06:46:33;34.00;32.20
31675;DHT22;18276;45.520;11.018;2022-08-11T06:49:06;34.30;31.90
31675;DHT22;18276;45.520;11.018;2022-08-11T06:52:09;34.60;31.20
31675;DHT22;18276;45.520;11.018;2022-08-11T06:55:47;35.10;29.60
31675;DHT22;18276;45.520;11.018;2022-08-11T06:58:28;35.50;29.30
31675;DHT22;18276;45.520;11.018;2022-08-11T07:04:48;35.60;27.20
31675;DHT22;18276;45.520;11.018;2022-08-11T07:11:00;36.20;26.10
31675;DHT22;18276;45.520;11.018;2022-08-11T07:13:51;36.50;25.60
31675;DHT22;18276;45.520;11.018;2022-08-11T07:16:40;36.80;25.30
31675;DHT22;18276;45.520;11.018;2022-08-11T07:19:11;37.00;25.30
31675;DHT22;18276;45.520;11.018;2022-08-11T07:22:02;37.30;24.70
31675;DHT22;18276;45.520;11.018;2022-08-11T07:24:57;37.40;24.40
31675;DHT22;18276;45.520;11.018;2022-08-11T07:28:06;37.70;24.20
31675;DHT22;18276;45.520;11.018;2022-08-11T07:31:02;37.70;23.50
31675;DHT22;18276;45.520;11.018;2022-08-11T07:36:27;35.60;24.80
31675;DHT22;18276;45.520;11.018;2022-08-11T07:38:56;35.20;25.40
31675;DHT22;18276;45.520;11.018;2022-08-11T07:41:24;35.00;25.40
31675;DHT22;18276;45.520;11.018;2022-08-11T07:43:56;34.80;25.60
31675;DHT22;18276;45.520;11.018;2022-08-11T07:46:40;34.90;25.80
31675;DHT22;18276;45.520;11.018;2022-08-11T07:49:34;35.10;25.90
31675;DHT22;18276;45.520;11.018;2022-08-11T07:52:21;35.40;25.10
31675;DHT22;18276;45.520;11.018;2022-08-11T07:55:04;35.90;24.70
31675;DHT22;18276;45.520;11.018;2022-08-11T07:57:34;35.90;24.70
31675;DHT22;18276;45.520;11.018;2022-08-11T08:00:45;35.50;24.60
31675;DHT22;18276;45.520;11.018;2022-08-11T08:03:48;35.00;25.40
31675;DHT22;18276;45.520;11.018;2022-08-11T08:06:35;35.10;25.70
31675;DHT22;18276;45.520;11.018;2022-08-11T08:09:22;35.30;25.60
31675;DHT22;18276;45.520;11.018;2022-08-11T08:12:09;35.30;25.20
31675;DHT22;18276;45.520;11.018;2022-08-11T08:14:56;35.30;25.40
31675;DHT22;18276;45.520;11.018;2022-08-11T08:17:43;35.20;25.00
31675;DHT22;18276;45.520;11.018;2022-08-11T08:20:47;34.60;25.20
31675;DHT22;18276;45.520;11.018;2022-08-11T08:23:21;34.00;25.90
31675;DHT22;18276;45.520;11.018;2022-08-11T08:26:03;33.90;26.20
31675;DHT22;18276;45.520;11.018;2022-08-11T08:28:52;34.00;25.90
31675;DHT22;18276;45.520;11.018;2022-08-11T08:31:21;34.10;26.10
31675;DHT22;18276;45.520;11.018;2022-08-11T08:33:48;34.40;25.90
31675;DHT22;18276;45.520;11.018;2022-08-11T08:36:16;34.40;25.80
31675;DHT22;18276;45.520;11.018;2022-08-11T08:38:51;34.50;26.00
31675;DHT22;18276;45.520;11.018;2022-08-11T08:41:28;34.60;25.80
31675;DHT22;18276;45.520;11.018;2022-08-11T08:43:58;34.80;25.40
31675;DHT22;18276;45.520;11.018;2022-08-11T08:46:52;35.20;25.10
31675;DHT22;18276;45.520;11.018;2022-08-11T08:49:32;35.80;24.70
31675;DHT22;18276;45.520;11.018;2022-08-11T08:52:05;36.10;24.00
31675;DHT22;18276;45.520;11.018;2022-08-11T08:54:55;36.60;24.20
31675;DHT22;18276;45.520;11.018;2022-08-11T08:57:27;36.60;23.80
31675;DHT22;18276;45.520;11.018;2022-08-11T08:59:55;36.40;23.90
31675;DHT22;18276;45.520;11.018;2022-08-11T09:02:25;36.00;24.00
31675;DHT22;18276;45.520;11.018;2022-08-11T09:05:02;36.10;24.20
31675;DHT22;18276;45.520;11.018;2022-08-11T09:07:31;37.00;24.20
31675;DHT22;18276;45.520;11.018;2022-08-11T09:10:07;37.80;23.60
31675;DHT22;18276;45.520;11.018;2022-08-11T09:12:38;38.90;23.20
31675;DHT22;18276;45.520;11.018;2022-08-11T09:15:07;39.80;22.40
31675;DHT22;18276;45.520;11.018;2022-08-11T09:17:48;40.40;22.00
31675;DHT22;18276;45.520;11.018;2022-08-11T09:20:19;40.60;21.20
31675;DHT22;18276;45.520;11.018;2022-08-11T09:22:48;40.70;21.40
31675;DHT22;18276;45.520;11.018;2022-08-11T09:25:56;41.00;21.40
31675;DHT22;18276;45.520;11.018;2022-08-11T09:28:43;41.30;21.10
31675;DHT22;18276;45.520;11.018;2022-08-11T09:31:12;41.30;21.10
31675;DHT22;18276;45.520;11.018;2022-08-11T09:33:41;41.10;20.90
31675;DHT22;18276;45.520;11.018;2022-08-11T09:36:10;41.10;20.90
31675;DHT22;18276;45.520;11.018;2022-08-11T09:38:57;41.00;20.70
31675;DHT22;18276;45.520;11.018;2022-08-11T09:41:44;40.50;20.80
31675;DHT22;18276;45.520;11.018;2022-08-11T09:44:30;40.10;21.30
31675;DHT22;18276;45.520;11.018;2022-08-11T09:47:29;40.30;21.10
31675;DHT22;18276;45.520;11.018;2022-08-11T09:49:58;40.20;20.90
31675;DHT22;18276;45.520;11.018;2022-08-11T09:52:30;40.10;20.90
31675;DHT22;18276;45.520;11.018;2022-08-11T09:54:58;40.10;21.10
31675;DHT22;18276;45.520;11.018;2022-08-11T09:57:25;40.20;21.10
31675;DHT22;18276;45.520;11.018;2022-08-11T10:00:12;40.30;21.00
31675;DHT22;18276;45.520;11.018;2022-08-11T10:02:50;40.30;21.00
31675;DHT22;18276;45.520;11.018;2022-08-11T10:05:20;40.40;20.60
31675;DHT22;18276;45.520;11.018;2022-08-11T10:08:09;40.60;20.60
31675;DHT22;18276;45.520;11.018;2022-08-11T10:10:38;41.00;20.70
31675;DHT22;18276;45.520;11.018;2022-08-11T10:13:19;41.10;20.50
31675;DHT22;18276;45.520;11.018;2022-08-11T10:16:12;41.50;20.40
31675;DHT22;18276;45.520;11.018;2022-08-11T10:18:46;41.70;20.10
31675;DHT22;18276;45.520;11.018;2022-08-11T10:21:50;41.90;19.90
31675;DHT22;18276;45.520;11.018;2022-08-11T10:24:38;42.20;19.60
31675;DHT22;18276;45.520;11.018;2022-08-11T10:27:26;42.10;19.70
31675;DHT22;18276;45.520;11.018;2022-08-11T10:30:13;41.80;19.50
31675;DHT22;18276;45.520;11.018;2022-08-11T10:33:02;41.30;19.80
31675;DHT22;18276;45.520;11.018;2022-08-11T10:36:08;41.40;20.00
31675;DHT22;18276;45.520;11.018;2022-08-11T10:38:44;41.70;19.90
31675;DHT22;18276;45.520;11.018;2022-08-11T10:41:13;41.60;19.70
31675;DHT22;18276;45.520;11.018;2022-08-11T10:43:59;41.70;20.00
31675;DHT22;18276;45.520;11.018;2022-08-11T10:46:29;42.10;20.00
31675;DHT22;18276;45.520;11.018;2022-08-11T10:49:16;42.70;19.70
31675;DHT22;18276;45.520;11.018;2022-08-11T10:51:45;43.00;19.40
31675;DHT22;18276;45.520;11.018;2022-08-11T10:54:32;43.00;19.40
31675;DHT22;18276;45.520;11.018;2022-08-11T10:57:19;43.40;19.30
31675;DHT22;18276;45.520;11.018;2022-08-11T11:00:07;43.50;19.20
31675;DHT22;18276;45.520;11.018;2022-08-11T11:02:35;43.30;19.10
31675;DHT22;18276;45.520;11.018;2022-08-11T11:07:57;43.00;19.40
31675;DHT22;18276;45.520;11.018;2022-08-11T11:10:29;42.70;19.90
31675;DHT22;18276;45.520;11.018;2022-08-11T11:12:58;41.10;20.40
31675;DHT22;18276;45.520;11.018;2022-08-11T11:15:45;39.40;21.60
31675;DHT22;18276;45.520;11.018;2022-08-11T11:18:34;38.80;22.50
31675;DHT22;18276;45.520;11.018;2022-08-11T11:21:06;39.10;22.50
31675;DHT22;18276;45.520;11.018;2022-08-11T11:23:47;38.90;22.40
31675;DHT22;18276;45.520;11.018;2022-08-11T11:37:35;38.10;23.80
31675;DHT22;18276;45.520;11.018;2022-08-11T11:40:09;38.80;23.20
31675;DHT22;18276;45.520;11.018;2022-08-11T11:42:38;39.40;22.90
31675;DHT22;18276;45.520;11.018;2022-08-11T11:45:08;40.10;22.40
31675;DHT22;18276;45.520;11.018;2022-08-11T11:47:49;41.20;21.80
31675;DHT22;18276;45.520;11.018;2022-08-11T11:50:28;42.00;21.20
31675;DHT22;18276;45.520;11.018;2022-08-11T11:53:00;42.20;20.80
31675;DHT22;18276;45.520;11.018;2022-08-11T11:55:29;42.20;20.70
31675;DHT22;18276;45.520;11.018;2022-08-11T11:57:59;42.40;20.50
31675;DHT22;18276;45.520;11.018;2022-08-11T12:00:46;42.50;20.40
31675;DHT22;18276;45.520;11.018;2022-08-11T12:03:33;42.60;20.50
31675;DHT22;18276;45.520;11.018;2022-08-11T12:06:02;42.80;20.30
31675;DHT22;18276;45.520;11.018;2022-08-11T12:08:30;43.00;20.20
31675;DHT22;18276;45.520;11.018;2022-08-11T12:10:59;43.30;20.10
31675;DHT22;18276;45.520;11.018;2022-08-11T12:13:47;43.20;19.80
31675;DHT22;18276;45.520;11.018;2022-08-11T12:16:18;42.40;20.20
31675;DHT22;18276;45.520;11.018;2022-08-11T12:19:22;42.50;20.20
31675;DHT22;18276;45.520;11.018;2022-08-11T12:21:51;42.90;20.60
31675;DHT22;18276;45.520;11.018;2022-08-11T12:24:39;43.10;20.20
31675;DHT22;18276;45.520;11.018;2022-08-11T12:27:26;43.10;20.30
31675;DHT22;18276;45.520;11.018;2022-08-11T12:30:02;43.20;20.20
31675;DHT22;18276;45.520;11.018;2022-08-11T12:32:36;43.50;20.10
31675;DHT22;18276;45.520;11.018;2022-08-11T12:35:05;43.80;19.80
31675;DHT22;18276;45.520;11.018;2022-08-11T12:37:39;44.40;19.80
31675;DHT22;18276;45.520;11.018;2022-08-11T12:40:14;45.10;19.50
31675;DHT22;18276;45.520;11.018;2022-08-11T12:43:21;45.60;19.10
31675;DHT22;18276;45.520;11.018;2022-08-11T12:46:23;45.80;18.60
31675;DHT22;18276;45.520;11.018;2022-08-11T12:48:56;45.70;18.70
31675;DHT22;18276;45.520;11.018;2022-08-11T12:51:48;45.40;19.10
31675;DHT22;18276;45.520;11.018;2022-08-11T12:57:24;43.40;19.90
31675;DHT22;18276;45.520;11.018;2022-08-11T13:00:11;42.70;20.20
31675;DHT22;18276;45.520;11.018;2022-08-11T13:02:57;42.00;20.70
31675;DHT22;18276;45.520;11.018;2022-08-11T13:05:45;41.90;21.00
31675;DHT22;18276;45.520;11.018;2022-08-11T13:08:13;41.60;21.20
31675;DHT22;18276;45.520;11.018;2022-08-11T13:10:42;41.00;21.50
31675;DHT22;18276;45.520;11.018;2022-08-11T13:13:30;40.20;22.10
31675;DHT22;18276;45.520;11.018;2022-08-11T13:16:17;39.30;22.90
31675;DHT22;18276;45.520;11.018;2022-08-11T13:18:46;38.40;23.40
31675;DHT22;18276;45.520;11.018;2022-08-11T13:21:15;37.70;23.80
31675;DHT22;18276;45.520;11.018;2022-08-11T13:23:49;37.40;24.20
31675;DHT22;18276;45.520;11.018;2022-08-11T13:26:33;37.00;24.20
31675;DHT22;18276;45.520;11.018;2022-08-11T13:29:18;36.80;24.50
31675;DHT22;18276;45.520;11.018;2022-08-11T13:31:46;36.70;24.80
31675;DHT22;18276;45.520;11.018;2022-08-11T13:34:17;36.50;25.10
31675;DHT22;18276;45.520;11.018;2022-08-11T13:36:48;36.20;25.60
31675;DHT22;18276;45.520;11.018;2022-08-11T13:39:16;35.50;25.80
31675;DHT22;18276;45.520;11.018;2022-08-11T13:41:44;35.10;26.50
31675;DHT22;18276;45.520;11.018;2022-08-11T13:44:16;35.00;26.80
31675;DHT22;18276;45.520;11.018;2022-08-11T13:46:53;35.10;26.70
31675;DHT22;18276;45.520;11.018;2022-08-11T13:49:22;35.10;26.60
31675;DHT22;18276;45.520;11.018;2022-08-11T13:51:51;35.20;26.50
31675;DHT22;18276;45.520;11.018;2022-08-11T13:54:35;35.20;26.70
31675;DHT22;18276;45.520;11.018;2022-08-11T13:57:07;34.80;27.20
31675;DHT22;18276;45.520;11.018;2022-08-11T13:59:54;34.70;27.40
31675;DHT22;18276;45.520;11.018;2022-08-11T14:02:42;34.70;27.10
31675;DHT22;18276;45.520;11.018;2022-08-11T14:05:13;34.70;26.90
31675;DHT22;18276;45.520;11.018;2022-08-11T14:10:17;34.70;27.50
31675;DHT22;18276;45.520;11.018;2022-08-11T14:12:51;34.60;27.70
31675;DHT22;18276;45.520;11.018;2022-08-11T14:15:41;34.40;28.00
31675;DHT22;18276;45.520;11.018;2022-08-11T14:18:18;34.40;28.10
31675;DHT22;18276;45.520;11.018;2022-08-11T14:20:49;34.30;27.60
31675;DHT22;18276;45.520;11.018;2022-08-11T14:23:45;34.20;27.50
31675;DHT22;18276;45.520;11.018;2022-08-11T14:26:15;34.40;27.40
31675;DHT22;18276;45.520;11.018;2022-08-11T14:29:00;34.50;27.50
31675;DHT22;18276;45.520;11.018;2022-08-11T14:31:30;34.50;27.70
31675;DHT22;18276;45.520;11.018;2022-08-11T14:34:01;34.30;28.10
31675;DHT22;18276;45.520;11.018;2022-08-11T14:36:32;34.10;28.20
31675;DHT22;18276;45.520;11.018;2022-08-11T14:39:11;34.10;28.30
31675;DHT22;18276;45.520;11.018;2022-08-11T14:41:43;34.10;28.00
31675;DHT22;18276;45.520;11.018;2022-08-11T14:44:47;34.30;28.30
31675;DHT22;18276;45.520;11.018;2022-08-11T14:47:35;34.00;28.50
31675;DHT22;18276;45.520;11.018;2022-08-11T14:50:04;33.70;29.00
31675;DHT22;18276;45.520;11.018;2022-08-11T14:52:55;33.70;28.80
31675;DHT22;18276;45.520;11.018;2022-08-11T14:55:28;33.60;28.60
31675;DHT22;18276;45.520;11.018;2022-08-11T14:58:17;33.40;29.00
31675;DHT22;18276;45.520;11.018;2022-08-11T15:00:45;33.50;28.90
31675;DHT22;18276;45.520;11.018;2022-08-11T15:03:13;33.80;28.60
31675;DHT22;18276;45.520;11.018;2022-08-11T15:05:47;34.10;28.30
31675;DHT22;18276;45.520;11.018;2022-08-11T15:08:29;34.30;28.10
31675;DHT22;18276;45.520;11.018;2022-08-11T15:11:17;34.40;28.20
31675;DHT22;18276;45.520;11.018;2022-08-11T15:14:05;34.30;28.20
31675;DHT22;18276;45.520;11.018;2022-08-11T15:16:41;34.00;28.40
31675;DHT22;18276;45.520;11.018;2022-08-11T15:19:31;33.70;28.70
31675;DHT22;18276;45.520;11.018;2022-08-11T15:22:08;33.40;29.10
31675;DHT22;18276;45.520;11.018;2022-08-11T15:24:57;33.30;29.10
31675;DHT22;18276;45.520;11.018;2022-08-11T15:27:25;33.30;29.00
31675;DHT22;18276;45.520;11.018;2022-08-11T15:30:13;33.30;29.00
31675;DHT22;18276;45.520;11.018;2022-08-11T15:33:10;33.20;29.10
31675;DHT22;18276;45.520;11.018;2022-08-11T15:36:00;33.00;29.30
31675;DHT22;18276;45.520;11.018;2022-08-11T15:38:54;33.00;29.50
31675;DHT22;18276;45.520;11.018;2022-08-11T15:41:52;32.90;29.40
31675;DHT22;18276;45.520;11.018;2022-08-11T15:44:41;33.00;29.40
31675;DHT22;18276;45.520;11.018;2022-08-11T15:47:54;33.10;29.40
31675;DHT22;18276;45.520;11.018;2022-08-11T15:50:33;33.20;29.60
31675;DHT22;18276;45.520;11.018;2022-08-11T15:53:12;33.40;29.50
31675;DHT22;18276;45.520;11.018;2022-08-11T15:55:44;33.40;29.50
31675;DHT22;18276;45.520;11.018;2022-08-11T15:58:12;33.30;29.80
31675;DHT22;18276;45.520;11.018;2022-08-11T16:01:00;33.20;29.90
31675;DHT22;18276;45.520;11.018;2022-08-11T16:03:55;32.90;30.00
31675;DHT22;18276;45.520;11.018;2022-08-11T16:09:22;32.50;30.20
31675;DHT22;18276;45.520;11.018;2022-08-11T16:11:54;32.50;30.40
31675;DHT22;18276;45.520;11.018;2022-08-11T16:14:23;32.50;30.30
31675;DHT22;18276;45.520;11.018;2022-08-11T16:17:11;32.50;30.30
31675;DHT22;18276;45.520;11.018;2022-08-11T16:19:41;32.50;30.40
31675;DHT22;18276;45.520;11.018;2022-08-11T16:22:11;32.40;30.40
31675;DHT22;18276;45.520;11.018;2022-08-11T16:24:41;32.30;30.60
31675;DHT22;18276;45.520;11.018;2022-08-11T16:27:32;32.20;30.90
31675;DHT22;18276;45.520;11.018;2022-08-11T16:30:02;32.20;31.20
31675;DHT22;18276;45.520;11.018;2022-08-11T16:32:34;32.00;31.10
31675;DHT22;18276;45.520;11.018;2022-08-11T16:35:06;32.00;31.20
31675;DHT22;18276;45.520;11.018;2022-08-11T16:37:54;31.90;31.20
31675;DHT22;18276;45.520;11.018;2022-08-11T16:40:42;31.80;31.60
31675;DHT22;18276;45.520;11.018;2022-08-11T16:43:14;31.70;30.90
31675;DHT22;18276;45.520;11.018;2022-08-11T16:46:02;31.60;31.10
31675;DHT22;18276;45.520;11.018;2022-08-11T16:48:49;31.50;31.30
31675;DHT22;18276;45.520;11.018;2022-08-11T16:51:19;31.50;30.90
31675;DHT22;18276;45.520;11.018;2022-08-11T16:53:48;31.40;31.00
31675;DHT22;18276;45.520;11.018;2022-08-11T16:56:49;31.40;31.20
31675;DHT22;18276;45.520;11.018;2022-08-11T16:59:23;31.30;31.30
31675;DHT22;18276;45.520;11.018;2022-08-11T17:02:01;31.20;31.40
31675;DHT22;18276;45.520;11.018;2022-08-11T17:04:49;31.10;31.60
31675;DHT22;18276;45.520;11.018;2022-08-11T17:07:37;31.00;31.40
31675;DHT22;18276;45.520;11.018;2022-08-11T17:10:32;30.80;31.90
31675;DHT22;18276;45.520;11.018;2022-08-11T17:13:29;30.80;31.60
31675;DHT22;18276;45.520;11.018;2022-08-11T17:16:00;30.70;31.70
31675;DHT22;18276;45.520;11.018;2022-08-11T17:18:48;30.60;31.80
31675;DHT22;18276;45.520;11.018;2022-08-11T17:21:24;30.50;32.00
31675;DHT22;18276;45.520;11.018;2022-08-11T17:26:38;30.20;32.20
31675;DHT22;18276;45.520;11.018;2022-08-11T17:29:29;30.10;32.20
31675;DHT22;18276;45.520;11.018;2022-08-11T17:32:01;30.10;32.40
31675;DHT22;18276;45.520;11.018;2022-08-11T17:34:51;30.00;32.40
31675;DHT22;18276;45.520;11.018;2022-08-11T17:37:41;29.90;32.30
31675;DHT22;18276;45.520;11.018;2022-08-11T17:40:12;29.80;32.40
31675;DHT22;18276;45.520;11.018;2022-08-11T17:42:40;29.80;32.60
31675;DHT22;18276;45.520;11.018;2022-08-11T17:45:28;29.70;33.00
31675;DHT22;18276;45.520;11.018;2022-08-11T17:48:33;29.70;33.20
31675;DHT22;18276;45.520;11.018;2022-08-11T17:51:17;29.60;33.30
31675;DHT22;18276;45.520;11.018;2022-08-11T17:54:05;29.50;33.40
31675;DHT22;18276;45.520;11.018;2022-08-11T17:56:52;29.40;33.70
31675;DHT22;18276;45.520;11.018;2022-08-11T17:59:48;29.40;33.90
31675;DHT22;18276;45.520;11.018;2022-08-11T18:02:29;29.40;34.20
31675;DHT22;18276;45.520;11.018;2022-08-11T18:05:20;29.40;34.50
31675;DHT22;18276;45.520;11.018;2022-08-11T18:07:51;29.30;34.40
31675;DHT22;18276;45.520;11.018;2022-08-11T18:10:39;29.20;34.70
31675;DHT22;18276;45.520;11.018;2022-08-11T18:13:29;29.10;34.80
31675;DHT22;18276;45.520;11.018;2022-08-11T18:16:17;29.00;35.00
31675;DHT22;18276;45.520;11.018;2022-08-11T18:19:05;28.80;34.90
31675;DHT22;18276;45.520;11.018;2022-08-11T18:22:02;28.70;35.10
31675;DHT22;18276;45.520;11.018;2022-08-11T18:24:57;28.70;35.60
31675;DHT22;18276;45.520;11.018;2022-08-11T18:27:46;28.60;36.20
31675;DHT22;18276;45.520;11.018;2022-08-11T18:30:35;28.60;36.60
31675;DHT22;18276;45.520;11.018;2022-08-11T18:33:42;28.50;36.80
31675;DHT22;18276;45.520;11.018;2022-08-11T18:36:46;28.40;37.10
31675;DHT22;18276;45.520;11.018;2022-08-11T18:39:36;28.30;37.40
31675;DHT22;18276;45.520;11.018;2022-08-11T18:42:28;28.20;37.60
31675;DHT22;18276;45.520;11.018;2022-08-11T18:45:17;28.20;37.80
31675;DHT22;18276;45.520;11.018;2022-08-11T18:48:20;28.10;38.10
31675;DHT22;18276;45.520;11.018;2022-08-11T18:51:08;28.00;38.50
31675;DHT22;18276;45.520;11.018;2022-08-11T18:54:06;27.90;38.60
31675;DHT22;18276;45.520;11.018;2022-08-11T18:56:55;27.80;38.80
31675;DHT22;18276;45.520;11.018;2022-08-11T18:59:42;27.70;39.10
31675;DHT22;18276;45.520;11.018;2022-08-11T19:02:30;27.60;39.50
31675;DHT22;18276;45.520;11.018;2022-08-11T19:05:17;27.50;39.80
31675;DHT22;18276;45.520;11.018;2022-08-11T19:08:31;27.50;40.00
31675;DHT22;18276;45.520;11.018;2022-08-11T19:11:20;27.40;40.10
31675;DHT22;18276;45.520;11.018;2022-08-11T19:14:10;27.30;40.10
31675;DHT22;18276;45.520;11.018;2022-08-11T19:16:59;27.30;40.30
31675;DHT22;18276;45.520;11.018;2022-08-11T19:20:08;27.20;40.50
31675;DHT22;18276;45.520;11.018;2022-08-11T19:22:56;27.20;40.70
31675;DHT22;18276;45.520;11.018;2022-08-11T19:25:43;27.10;40.90
31675;DHT22;18276;45.520;11.018;2022-08-11T19:28:29;27.00;40.90
31675;DHT22;18276;45.520;11.018;2022-08-11T19:31:16;27.00;40.90
31675;DHT22;18276;45.520;11.018;2022-08-11T19:34:14;27.00;41.00
31675;DHT22;18276;45.520;11.018;2022-08-11T19:37:02;26.90;41.10
31675;DHT22;18276;45.520;11.018;2022-08-11T19:40:00;26.90;41.20
31675;DHT22;18276;45.520;11.018;2022-08-11T19:42:47;26.90;41.40
31675;DHT22;18276;45.520;11.018;2022-08-11T19:45:55;26.80;41.40
31675;DHT22;18276;45.520;11.018;2022-08-11T19:48:44;26.70;41.50
31675;DHT22;18276;45.520;11.018;2022-08-11T19:51:30;26.70;41.60
31675;DHT22;18276;45.520;11.018;2022-08-11T19:54:25;26.70;41.80
31675;DHT22;18276;45.520;11.018;2022-08-11T19:57:11;26.60;42.00
31675;DHT22;18276;45.520;11.018;2022-08-11T20:00:08;26.60;42.00
31675;DHT22;18276;45.520;11.018;2022-08-11T20:02:57;26.50;42.10
31675;DHT22;18276;45.520;11.018;2022-08-11T20:05:44;26.50;42.20
31675;DHT22;18276;45.520;11.018;2022-08-11T20:08:33;26.50;42.30
31675;DHT22;18276;45.520;11.018;2022-08-11T20:11:25;26.50;42.30
31675;DHT22;18276;45.520;11.018;2022-08-11T20:14:13;26.50;42.30
31675;DHT22;18276;45.520;11.018;2022-08-11T20:17:01;26.50;42.40
31675;DHT22;18276;45.520;11.018;2022-08-11T20:19:48;26.40;42.50
31675;DHT22;18276;45.520;11.018;2022-08-11T20:22:34;26.40;42.60
31675;DHT22;18276;45.520;11.018;2022-08-11T20:25:22;26.40;42.60
31675;DHT22;18276;45.520;11.018;2022-08-11T20:28:08;26.50;42.70
31675;DHT22;18276;45.520;11.018;2022-08-11T20:30:55;26.50;42.70